createdAt,value
2022-11-06T00:03:18.138Z,9.50
2022-11-06T00:08:29.737Z,9.79
2022-11-06T00:13:32.450Z,9.78
2022-11-06T00:18:37.754Z,9.94
2022-11-06T00:23:41.121Z,9.85
2022-11-06T00:28:44.492Z,9.65
2022-11-06T00:33:49.102Z,9.79
2022-11-06T00:38:53.467Z,9.80
2022-11-06T00:43:58.215Z,9.63
2022-11-06T00:49:02.338Z,9.72
2022-11-06T00:54:07.154Z,9.84
2022-11-06T00:59:13.918Z,9.70
2022-11-06T01:04:20.903Z,9.71
2022-11-06T01:09:25.704Z,9.40
2022-11-06T01:14:29.333Z,9.37
2022-11-06T01:19:33.440Z,9.20
2022-11-06T01:24:36.468Z,9.30
2022-11-06T01:29:39.272Z,9.49
2022-11-06T01:34:43.483Z,9.58
2022-11-06T01:39:46.279Z,9.69
2022-11-06T01:45:27.095Z,9.75
2022-11-06T01:50:31.298Z,9.68
2022-11-06T01:55:39.487Z,9.76
2022-11-06T02:00:43.181Z,9.69
2022-11-06T02:05:48.022Z,9.66
2022-11-06T02:10:52.128Z,9.77
2022-11-06T02:16:03.582Z,9.55
2022-11-06T02:21:27.008Z,9.82
2022-11-06T02:26:55.895Z,9.78
2022-11-06T02:32:02.320Z,9.93
2022-11-06T02:37:11.085Z,9.70
2022-11-06T02:42:19.242Z,9.83
2022-11-06T02:47:26.013Z,9.68
2022-11-06T02:52:33.076Z,9.65
2022-11-06T02:57:43.530Z,9.97
2022-11-06T03:02:51.336Z,10.03
2022-11-06T03:08:00.328Z,9.84
2022-11-06T03:13:14.378Z,9.79
2022-11-06T03:18:25.324Z,9.69
2022-11-06T03:23:34.253Z,9.71
2022-11-06T03:28:44.922Z,9.68
2022-11-06T03:33:52.321Z,9.85
2022-11-06T03:39:00.346Z,9.79
2022-11-06T03:44:06.779Z,9.74
2022-11-06T03:49:16.811Z,9.70
2022-11-06T03:54:24.921Z,9.70
2022-11-06T03:59:34.640Z,9.67
2022-11-06T04:04:43.033Z,9.67
2022-11-06T04:10:05.584Z,9.80
2022-11-06T04:15:13.799Z,9.78
2022-11-06T04:20:33.137Z,9.52
2022-11-06T04:26:09.426Z,9.55
2022-11-06T04:31:21.410Z,9.35
2022-11-06T04:36:33.458Z,9.60
2022-11-06T04:41:42.778Z,9.56
2022-11-06T04:46:51.386Z,9.68
2022-11-06T04:51:54.922Z,9.65
2022-11-06T04:57:00.473Z,9.47
2022-11-06T05:02:05.123Z,9.28
2022-11-06T05:07:08.045Z,9.29
2022-11-06T05:12:10.838Z,9.32
2022-11-06T05:17:15.019Z,9.45
2022-11-06T05:22:35.241Z,9.48
2022-11-06T05:27:38.083Z,9.35
2022-11-06T05:32:42.345Z,9.07
2022-11-06T05:37:45.229Z,8.92
2022-11-06T05:42:47.947Z,8.92
2022-11-06T05:47:52.044Z,8.99
2022-11-06T05:52:54.838Z,9.06
2022-11-06T05:57:57.571Z,9.06
2022-11-06T06:03:02.789Z,9.03
2022-11-06T06:08:06.305Z,9.11
2022-11-06T06:13:09.085Z,9.16
2022-11-06T06:18:13.724Z,9.12
2022-11-06T06:23:16.715Z,9.16
2022-11-06T06:28:19.707Z,9.10
2022-11-06T06:33:23.881Z,9.24
2022-11-06T06:38:26.923Z,9.15
2022-11-06T06:43:29.661Z,9.25
2022-11-06T06:48:34.326Z,9.11
2022-11-06T06:53:37.865Z,9.29
2022-11-06T06:58:40.714Z,9.13
2022-11-06T07:03:45.039Z,9.49
2022-11-06T07:08:48.049Z,9.60
2022-11-06T07:13:53.185Z,9.54
2022-11-06T07:18:57.661Z,9.79
2022-11-06T07:24:00.515Z,9.91
2022-11-06T07:29:03.418Z,10.11
2022-11-06T07:34:07.623Z,10.21
2022-11-06T07:39:10.358Z,10.22
2022-11-06T07:44:13.324Z,10.09
2022-11-06T07:49:17.606Z,10.34
2022-11-06T07:54:20.444Z,10.17
2022-11-06T07:59:24.712Z,10.41
2022-11-06T08:04:28.878Z,10.59
2022-11-06T08:09:32.105Z,10.39
2022-11-06T08:14:38.776Z,10.66
2022-11-06T08:19:45.604Z,10.59
2022-11-06T08:24:48.576Z,10.86
2022-11-06T08:29:52.008Z,10.84
2022-11-06T08:34:56.172Z,11.23
2022-11-06T08:40:05.888Z,11.10
2022-11-06T08:45:10.017Z,11.32
2022-11-06T08:50:17.615Z,11.74
2022-11-06T08:55:20.500Z,11.52
2022-11-06T09:00:23.895Z,11.88
2022-11-06T09:05:29.395Z,11.66
2022-11-06T09:10:32.923Z,11.59
2022-11-06T09:15:39.419Z,11.56
2022-11-06T09:20:43.609Z,11.75
2022-11-06T09:25:46.404Z,11.89
2022-11-06T09:30:49.157Z,11.75
2022-11-06T09:35:53.322Z,12.00
2022-11-06T09:40:58.819Z,12.15
2022-11-06T09:46:07.966Z,12.16
2022-11-06T09:51:20.739Z,12.37
2022-11-06T09:56:26.853Z,12.27
2022-11-06T10:01:37.069Z,12.35
2022-11-06T10:06:41.306Z,12.26
2022-11-06T10:12:04.656Z,12.48
2022-11-06T10:17:19.018Z,12.08
2022-11-06T10:22:32.790Z,12.01
2022-11-06T10:27:41.469Z,12.25
2022-11-06T10:33:19.653Z,12.32
2022-11-06T10:38:28.558Z,12.49
2022-11-06T10:43:35.911Z,12.48
2022-11-06T10:48:44.226Z,13.04
2022-11-06T10:53:53.074Z,12.73
2022-11-06T10:58:56.097Z,13.13
2022-11-06T11:03:58.990Z,13.61
2022-11-06T11:09:03.154Z,13.58
2022-11-06T11:14:24.072Z,13.19
2022-11-06T11:19:35.096Z,12.87
2022-11-06T11:25:00.234Z,12.62
2022-11-06T11:30:05.481Z,12.72
2022-11-06T11:35:13.192Z,12.65
2022-11-06T11:40:28.506Z,12.82
2022-11-06T11:45:31.519Z,12.86
2022-11-06T11:50:35.795Z,12.75
2022-11-06T11:55:44.656Z,12.71
2022-11-06T12:00:54.655Z,12.81
2022-11-06T12:06:08.588Z,13.08
2022-11-06T12:11:17.181Z,13.43
2022-11-06T12:16:21.218Z,13.46
2022-11-06T12:21:29.133Z,13.46
2022-11-06T12:26:39.617Z,13.60
2022-11-06T12:31:47.008Z,13.65
2022-11-06T12:37:03.840Z,13.59
2022-11-06T12:42:12.447Z,13.69
2022-11-06T12:47:26.716Z,13.92
2022-11-06T12:52:42.553Z,14.33
2022-11-06T12:58:03.813Z,14.27
2022-11-06T13:03:25.846Z,14.19
2022-11-06T13:08:39.036Z,14.10
2022-11-06T13:13:57.424Z,13.98
2022-11-06T13:19:10.127Z,14.02
2022-11-06T13:24:21.037Z,13.96
2022-11-06T13:29:29.895Z,14.04
2022-11-06T13:34:37.147Z,13.92
2022-11-06T13:39:44.604Z,13.68
2022-11-06T13:44:49.360Z,13.49
2022-11-06T13:50:02.046Z,13.37
2022-11-06T13:55:14.070Z,13.19
2022-11-06T14:00:26.115Z,13.06
2022-11-06T14:05:47.953Z,12.88
2022-11-06T14:10:56.198Z,12.82
2022-11-06T14:16:05.147Z,12.69
2022-11-06T14:21:43.488Z,12.56
2022-11-06T14:26:47.707Z,12.63
2022-11-06T14:32:02.223Z,12.62
2022-11-06T14:37:37.384Z,12.64
2022-11-06T14:42:43.543Z,12.67
2022-11-06T14:47:56.571Z,12.63
2022-11-06T14:53:03.306Z,12.73
2022-11-06T14:58:20.337Z,12.63
2022-11-06T15:03:34.929Z,12.55
2022-11-06T15:08:55.659Z,12.37
2022-11-06T15:14:51.003Z,12.34
2022-11-06T15:20:21.950Z,12.16
2022-11-06T15:25:28.432Z,12.17
2022-11-06T15:30:34.803Z,12.01
2022-11-06T15:35:39.768Z,11.94
2022-11-06T15:40:44.465Z,11.86
2022-11-06T15:45:47.261Z,11.76
2022-11-06T15:50:51.442Z,11.82
2022-11-06T15:55:58.910Z,11.63
2022-11-06T16:01:03.337Z,11.57
2022-11-06T16:06:08.127Z,11.66
2022-11-06T16:11:14.749Z,11.70
2022-11-06T16:16:34.672Z,11.67
2022-11-06T16:21:38.995Z,11.63
2022-11-06T16:26:47.957Z,11.63
2022-11-06T16:32:00.984Z,11.49
2022-11-06T16:37:06.940Z,11.52
2022-11-06T16:42:24.035Z,11.43
2022-11-06T16:47:27.236Z,11.44
2022-11-06T16:52:33.895Z,11.48
2022-11-06T16:57:43.733Z,11.48
2022-11-06T17:02:50.136Z,11.49
2022-11-06T17:08:08.461Z,11.47
2022-11-06T17:13:17.581Z,11.39
2022-11-06T17:18:23.725Z,11.63
2022-11-06T17:23:29.512Z,11.49
2022-11-06T17:28:32.478Z,11.49
2022-11-06T17:33:35.192Z,11.44
2022-11-06T17:38:39.716Z,11.42
2022-11-06T17:43:42.492Z,11.34
2022-11-06T17:48:45.226Z,11.16
2022-11-06T17:53:50.628Z,11.35
2022-11-06T17:58:53.716Z,11.20
2022-11-06T18:03:56.637Z,11.19
2022-11-06T18:09:02.112Z,11.18
2022-11-06T18:14:05.079Z,11.13
2022-11-06T18:19:08.727Z,11.12
2022-11-06T18:24:12.941Z,11.23
2022-11-06T18:29:15.737Z,11.17
2022-11-06T18:34:21.206Z,11.25
2022-11-06T18:39:25.737Z,11.25
2022-11-06T18:44:28.616Z,11.29
2022-11-06T18:49:32.011Z,11.23
2022-11-06T18:54:36.318Z,11.24
2022-11-06T18:59:39.241Z,11.20
2022-11-06T19:04:42.184Z,11.04
2022-11-06T19:09:46.496Z,11.12
2022-11-06T19:14:49.352Z,11.14
2022-11-06T19:19:52.236Z,11.09
2022-11-06T19:24:56.462Z,11.03
2022-11-06T19:29:59.297Z,11.17
2022-11-06T19:35:02.069Z,11.02
2022-11-06T19:40:07.805Z,11.00
2022-11-06T19:45:11.346Z,11.13
2022-11-06T19:50:14.150Z,11.09
2022-11-06T19:55:25.792Z,11.11
2022-11-06T20:00:30.321Z,10.99
2022-11-06T20:05:33.307Z,11.13
2022-11-06T20:10:38.058Z,11.09
2022-11-06T20:15:41.007Z,11.18
2022-11-06T20:20:44.497Z,11.23
2022-11-06T20:25:53.297Z,11.09
2022-11-06T20:30:56.195Z,11.16
2022-11-06T20:35:58.999Z,11.17
2022-11-06T20:41:03.118Z,10.99
2022-11-06T20:46:06.698Z,11.20
2022-11-06T20:51:11.920Z,11.07
2022-11-06T20:56:18.286Z,11.03
2022-11-06T21:01:23.416Z,10.58
2022-11-06T21:06:27.890Z,10.59
2022-11-06T21:11:32.501Z,10.24
2022-11-06T21:16:37.291Z,10.03
2022-11-06T21:21:40.871Z,9.82
2022-11-06T21:26:44.972Z,9.73
2022-11-06T21:31:49.262Z,9.71
2022-11-06T21:36:52.221Z,9.38
2022-11-06T21:41:56.347Z,9.62
2022-11-06T21:46:59.103Z,9.59
2022-11-06T21:52:26.420Z,9.63
2022-11-06T21:57:33.148Z,9.58
2022-11-06T22:02:35.995Z,9.40
2022-11-06T22:07:38.842Z,9.64
2022-11-06T22:12:42.934Z,9.57
2022-11-06T22:17:45.825Z,9.58
2022-11-06T22:22:48.572Z,9.70
2022-11-06T22:27:52.908Z,9.63
2022-11-06T22:32:55.675Z,9.73
2022-11-06T22:37:58.418Z,9.72
2022-11-06T22:43:02.548Z,9.62
2022-11-06T22:48:05.796Z,9.56
2022-11-06T22:53:14.670Z,9.52
2022-11-06T22:58:19.313Z,9.55
2022-11-06T23:03:23.129Z,9.64
2022-11-06T23:08:26.897Z,9.58
2022-11-06T23:13:31.016Z,9.63
2022-11-06T23:18:33.935Z,9.68
2022-11-06T23:23:36.675Z,9.57
2022-11-06T23:28:41.579Z,9.68
2022-11-06T23:33:44.688Z,9.70
2022-11-06T23:38:47.436Z,9.72
2022-11-06T23:43:52.048Z,9.65
2022-11-06T23:48:55.114Z,9.90
2022-11-06T23:53:57.857Z,9.87
2022-11-06T23:59:01.953Z,10.06
